Time;durP1;ratioP1;P1;durP2;ratioP2;P2;SDS_P1;SDS_P2;PMS_P1;PMS_P2;Temp;Humidity;BMP_temperature;BMP_pressure;BME280_temperature;BME280_humidity;BME280_pressure;Samples;Min_cycle;Max_cycle;Signal;HPM_P1;HPM_P2
2023/03/23 00:02:28;;;;;;;3.63;0.77;;;;;;;7.47;59.07;100108.34;5036854;28;20044;-71
2023/03/23 00:05:03;;;;;;;2.47;0.30;;;;;;;7.43;58.94;100101.56;5038787;28;20025;-72
2023/03/23 00:07:34;;;;;;;0.80;0.20;;;;;;;7.33;58.87;100085.47;5029323;28;20111;-71
2023/03/23 00:10:02;;;;;;;1.05;0.20;;;;;;;7.44;58.84;100072.88;5038851;28;20036;-72
2023/03/23 00:12:34;;;;;;;1.27;0.17;;;;;;;7.43;58.73;100070.38;5021823;28;20362;-73
2023/03/23 00:15:12;;;;;;;1.42;0.35;;;;;;;7.45;58.44;100053.78;5027135;28;20756;-73
2023/03/23 00:17:49;;;;;;;0.60;0.22;;;;;;;7.26;59.55;100068.41;5027128;28;20040;-71
2023/03/23 00:20:18;;;;;;;1.33;0.40;;;;;;;7.42;59.05;100050.47;5032554;28;20800;-72
2023/03/23 00:22:50;;;;;;;3.00;0.30;;;;;;;7.42;58.94;100042.66;5024338;28;20037;-72
2023/03/23 00:25:18;;;;;;;0.75;0.30;;;;;;;7.47;59.12;100040.75;5039062;28;20036;-70
2023/03/23 00:28:08;;;;;;;3.45;0.28;;;;;;;7.53;58.87;100035.28;5041514;28;20041;-71
2023/03/23 00:30:45;;;;;;;2.30;0.30;;;;;;;7.51;58.54;100037.09;5037828;28;20406;-72
2023/03/23 00:33:15;;;;;;;1.65;0.20;;;;;;;7.45;58.70;100020.00;5040425;28;21510;-72
2023/03/23 00:35:42;;;;;;;3.80;0.20;;;;;;;7.38;58.85;100009.88;5022328;28;20040;-70
2023/03/23 00:38:08;;;;;;;1.73;0.35;;;;;;;7.32;59.28;100006.63;5040358;28;20433;-72
2023/03/23 00:40:38;;;;;;;0.77;0.20;;;;;;;7.17;59.58;99999.44;5025855;28;20033;-72
2023/03/23 00:43:06;;;;;;;1.15;0.20;;;;;;;7.20;59.34;99999.34;5025079;28;20103;-71
2023/03/23 00:45:38;;;;;;;0.80;0.17;;;;;;;7.24;59.28;99987.06;5039909;28;20063;-72
2023/03/23 00:48:06;;;;;;;1.10;0.20;;;;;;;7.32;59.35;99982.41;4998962;28;20137;-72
2023/03/23 00:50:31;;;;;;;3.35;0.20;;;;;;;7.47;59.25;99980.94;5030583;28;20099;-70
2023/03/23 00:53:02;;;;;;;1.70;0.43;;;;;;;7.50;59.13;99981.63;5036733;28;20037;-71
2023/03/23 00:55:40;;;;;;;2.33;0.50;;;;;;;7.60;58.67;99979.56;5040450;28;20040;-71
2023/03/23 00:58:12;;;;;;;1.75;0.60;;;;;;;7.50;59.48;99971.25;5038599;28;20044;-70
2023/03/23 01:00:39;;;;;;;3.67;1.05;;;;;;;7.53;59.45;99967.66;5022038;28;20074;-70
2023/03/23 01:03:08;;;;;;;2.22;0.88;;;;;;;7.64;59.66;99960.28;5036519;28;20040;-70
2023/03/23 01:05:42;;;;;;;2.72;1.80;;;;;;;7.45;60.78;99954.16;5040549;28;20040;-70
2023/03/23 01:08:10;;;;;;;4.32;2.75;;;;;;;7.43;61.04;99942.97;5028086;28;20698;-70
2023/03/23 01:10:45;;;;;;;6.68;5.00;;;;;;;7.37;62.61;99951.84;5039444;28;20047;-70
2023/03/23 01:13:11;;;;;;;6.95;5.60;;;;;;;6.95;65.26;99963.06;5040544;28;20041;-72
2023/03/23 01:15:41;;;;;;;9.18;6.22;;;;;;;7.23;64.51;99960.22;5038724;28;20472;-70
2023/03/23 01:18:10;;;;;;;10.23;6.13;;;;;;;7.71;63.14;99963.47;5037902;28;20060;-71
2023/03/23 01:20:44;;;;;;;9.02;6.53;;;;;;;7.76;62.96;99956.34;5039023;28;20039;-71
2023/03/23 01:23:12;;;;;;;11.10;6.00;;;;;;;7.61;63.95;99952.63;5039254;28;20040;-69
2023/03/23 01:25:49;;;;;;;12.05;7.28;;;;;;;7.42;64.45;99949.06;5043617;28;20060;-70
2023/03/23 01:28:15;;;;;;;11.32;5.88;;;;;;;7.09;65.25;99942.59;5022577;28;20479;-67
2023/03/23 01:30:43;;;;;;;13.18;7.25;;;;;;;7.49;64.16;99953.13;5040116;28;20064;-70
2023/03/23 01:33:10;;;;;;;10.60;7.22;;;;;;;7.20;64.89;99926.56;5024191;28;20162;-67
2023/03/23 01:35:37;;;;;;;10.40;6.05;;;;;;;7.92;62.85;99954.75;5024454;28;20899;-72
2023/03/23 01:38:10;;;;;;;10.18;6.10;;;;;;;7.69;63.68;99958.34;5030034;28;20048;-67
2023/03/23 01:40:38;;;;;;;8.75;6.10;;;;;;;7.28;64.77;99996.44;5040573;28;20517;-68
2023/03/23 01:43:17;;;;;;;10.68;6.65;;;;;;;7.77;63.18;99996.19;5036528;28;20094;-68
2023/03/23 01:45:44;;;;;;;3.92;2.65;;;;;;;7.93;61.66;99992.84;5035050;28;20409;-70
2023/03/23 01:48:23;;;;;;;4.05;2.67;;;;;;;7.70;62.29;99991.25;5024142;28;20155;-69
2023/03/23 01:50:56;;;;;;;7.15;2.75;;;;;;;7.73;62.10;99979.88;5025099;28;20040;-70
2023/03/23 01:53:37;;;;;;;4.03;3.63;;;;;;;7.63;62.75;99969.00;5029194;28;20040;-71
2023/03/23 01:56:11;;;;;;;5.63;4.20;;;;;;;7.52;63.32;99963.38;5039742;28;20204;-69
2023/03/23 01:58:42;;;;;;;9.30;4.57;;;;;;;8.09;61.96;99981.78;5037375;28;20524;-70
2023/03/23 02:01:13;;;;;;;10.40;5.10;;;;;;;8.02;61.99;99976.00;5021061;28;20404;-69
2023/03/23 02:03:44;;;;;;;16.08;6.88;;;;;;;7.91;62.82;99973.03;5011380;28;20111;-71
2023/03/23 02:06:11;;;;;;;8.60;5.93;;;;;;;7.58;63.32;99963.16;5024163;28;20158;-69
2023/03/23 02:08:50;;;;;;;9.05;7.15;;;;;;;7.51;64.37;99970.34;5011269;28;21807;-71
2023/03/23 02:11:21;;;;;;;10.30;6.50;;;;;;;7.57;63.48;99958.84;5038011;28;20024;-72
2023/03/23 02:13:50;;;;;;;12.40;7.07;;;;;;;7.67;63.31;99947.16;5027796;28;20136;-70
2023/03/23 02:16:40;;;;;;;9.15;4.93;;;;;;;7.49;63.33;99924.53;5028277;28;20171;-69
2023/03/23 02:19:26;;;;;;;6.18;3.97;;;;;;;6.83;64.83;99925.44;5024777;28;20053;-69
2023/03/23 02:22:34;;;;;;;9.02;3.30;;;;;;;7.35;63.18;99925.06;5024515;28;20036;-70
2023/03/23 02:25:29;;;;;;;6.05;3.35;;;;;;;7.27;63.00;99935.81;5021718;28;20060;-70
2023/03/23 02:28:04;;;;;;;7.05;3.28;;;;;;;7.44;62.44;99926.44;5040931;28;20099;-68
2023/03/23 02:30:43;;;;;;;7.45;3.75;;;;;;;6.78;64.71;99940.38;5038842;28;20116;-70
2023/03/23 02:33:30;;;;;;;5.43;3.38;;;;;;;7.06;63.25;99926.28;5021104;28;20155;-70
2023/03/23 02:36:17;;;;;;;4.97;2.72;;;;;;;7.58;61.51;99928.50;5016414;28;20136;-70
2023/03/23 02:39:29;;;;;;;5.03;2.03;;;;;;;6.95;63.09;99907.69;5028813;28;20041;-67
2023/03/23 02:42:02;;;;;;;3.92;2.08;;;;;;;7.08;62.14;99888.09;4999393;28;20052;-68
2023/03/23 02:44:33;;;;;;;3.50;1.13;;;;;;;7.21;61.41;99893.63;5020108;28;20288;-69
2023/03/23 02:47:02;;;;;;;1.40;0.70;;;;;;;7.38;60.69;99906.78;5041407;28;20041;-69
2023/03/23 02:49:34;;;;;;;1.15;0.40;;;;;;;7.53;59.32;99902.66;5008435;28;20059;-71
2023/03/23 02:52:14;;;;;;;;;;;;;;;;;;;;;
2023/03/23 02:54:58;;;;;;;0.63;0.20;;;;;;;7.42;58.54;99895.34;5036076;28;20267;-70
2023/03/23 02:57:24;;;;;;;1.53;0.30;;;;;;;7.12;59.34;99892.25;5022933;28;20058;-70
2023/03/23 02:59:55;;;;;;;2.90;0.90;;;;;;;7.38;58.38;99885.09;5018929;28;20046;-69
2023/03/23 03:02:40;;;;;;;1.88;0.50;;;;;;;7.48;58.36;99883.81;5025264;28;20143;-70
2023/03/23 03:05:25;;;;;;;1.90;0.40;;;;;;;7.41;58.64;99893.63;5016293;28;20569;-70
2023/03/23 03:08:09;;;;;;;1.48;0.40;;;;;;;6.63;60.78;99882.09;5017732;28;20371;-71
2023/03/23 03:10:53;;;;;;;2.78;0.30;;;;;;;7.44;58.81;99890.06;5020957;28;20280;-69
2023/03/23 03:13:31;;;;;;;0.93;0.38;;;;;;;7.04;59.67;99881.31;5024293;28;20068;-70
2023/03/23 03:16:15;;;;;;;1.98;0.55;;;;;;;7.36;59.09;99882.59;5022338;28;20055;-70
2023/03/23 03:18:51;;;;;;;2.28;0.77;;;;;;;7.66;57.93;99869.19;5019750;28;20041;-70
2023/03/23 03:21:25;;;;;;;1.48;0.55;;;;;;;7.28;59.79;99872.50;5014731;28;20626;-70
2023/03/23 03:24:10;;;;;;;1.58;0.68;;;;;;;7.35;59.78;99874.84;5020694;28;20518;-71
2023/03/23 03:26:40;;;;;;;3.17;0.93;;;;;;;7.23;60.00;99858.88;5021409;28;20069;-69
2023/03/23 03:29:29;;;;;;;4.93;1.70;;;;;;;7.16;60.53;99857.44;5006998;28;20032;-70
2023/03/23 03:32:07;;;;;;;3.92;1.65;;;;;;;7.37;60.12;99854.84;5022829;28;20028;-70
2023/03/23 03:34:34;;;;;;;5.55;2.42;;;;;;;6.76;62.41;99846.09;5020126;28;20103;-69
2023/03/23 03:37:04;;;;;;;6.18;2.13;;;;;;;7.50;59.86;99853.41;5027557;28;20069;-70
2023/03/23 03:39:41;;;;;;;5.57;2.17;;;;;;;7.70;59.29;99861.19;5017603;28;20368;-69
2023/03/23 03:42:06;;;;;;;4.50;2.47;;;;;;;7.31;60.70;99856.78;5021849;28;20377;-70
2023/03/23 03:44:39;;;;;;;7.55;2.80;;;;;;;7.64;60.02;99863.22;5013273;28;20471;-71
2023/03/23 03:47:17;;;;;;;8.98;2.80;;;;;;;7.20;61.58;99848.59;5005437;28;20189;-71
2023/03/23 03:49:42;;;;;;;3.22;2.22;;;;;;;7.74;59.62;99847.16;5029714;28;20028;-70
2023/03/23 03:52:10;;;;;;;6.60;2.05;;;;;;;7.48;60.32;99839.63;5034095;28;22854;-70
2023/03/23 03:54:41;;;;;;;6.60;2.97;;;;;;;7.00;61.41;99848.56;5036509;28;20025;-70
2023/03/23 03:57:12;;;;;;;5.97;2.40;;;;;;;7.25;60.60;99843.22;5025403;28;20076;-69
2023/03/23 04:00:14;;;;;;;3.17;1.80;;;;;;;7.48;59.96;99844.81;5034031;28;20594;-69
2023/03/23 04:02:56;;;;;;;9.32;2.55;;;;;;;6.86;62.05;99842.22;5036294;28;20391;-70
2023/03/23 04:05:44;;;;;;;5.65;2.55;;;;;;;7.13;60.55;99839.34;5020240;28;20648;-70
2023/03/23 04:08:13;;;;;;;5.60;2.80;;;;;;;7.64;59.20;99840.66;5020970;28;20131;-69
2023/03/23 04:10:39;;;;;;;5.55;2.05;;;;;;;6.89;61.27;99836.88;5033442;28;20059;-68
2023/03/23 04:13:09;;;;;;;3.72;1.92;;;;;;;7.05;60.31;99833.66;5006142;28;20412;-70
2023/03/23 04:16:02;;;;;;;4.25;2.15;;;;;;;7.26;60.23;99835.34;5023569;28;20039;-69
2023/03/23 04:18:29;;;;;;;7.20;2.30;;;;;;;7.52;59.04;99825.56;5034687;28;20527;-70
2023/03/23 04:20:58;;;;;;;5.40;2.10;;;;;;;7.27;59.43;99825.81;5034709;28;20453;-69
2023/03/23 04:23:33;;;;;;;2.58;1.52;;;;;;;7.26;59.59;99834.50;5030896;28;20821;-70
2023/03/23 04:26:05;;;;;;;6.20;1.67;;;;;;;7.48;58.79;99839.63;5043989;28;20028;-75
2023/03/23 04:28:41;;;;;;;5.35;1.83;;;;;;;7.98;57.74;99840.91;5026346;28;20039;-71
2023/03/23 04:31:25;;;;;;;5.35;2.03;;;;;;;7.71;58.31;99842.09;5037699;28;20507;-73
2023/03/23 04:34:01;;;;;;;4.53;1.55;;;;;;;7.36;59.21;99837.56;5026842;28;20036;-73
2023/03/23 04:36:33;;;;;;;9.85;2.10;;;;;;;7.02;60.19;99837.22;5031863;28;20040;-71
2023/03/23 04:39:06;;;;;;;3.65;1.48;;;;;;;7.05;60.75;99841.44;5026253;28;20314;-71
2023/03/23 04:41:35;;;;;;;5.38;1.88;;;;;;;7.38;59.12;99838.31;5021208;28;21947;-71
2023/03/23 04:44:23;;;;;;;3.25;1.60;;;;;;;8.01;57.72;99844.22;5011872;28;20657;-65
2023/03/23 04:47:06;;;;;;;7.72;1.83;;;;;;;7.94;58.09;99837.59;5038046;28;20071;-67
2023/03/23 04:49:37;;;;;;;2.20;1.42;;;;;;;7.58;59.06;99848.75;5036320;28;22036;-69
2023/03/23 04:52:28;;;;;;;7.63;2.72;;;;;;;7.62;59.25;99854.63;5025622;28;20117;-71
2023/03/23 04:55:02;;;;;;;6.50;1.83;;;;;;;7.04;61.10;99857.94;5017021;28;20183;-68
2023/03/23 04:57:31;;;;;;;2.85;1.38;;;;;;;6.91;62.48;99866.25;5010188;28;20060;-72
2023/03/23 05:00:26;;;;;;;3.63;1.33;;;;;;;6.59;61.58;99827.75;5018207;28;20032;-72
2023/03/23 05:02:57;;;;;;;8.80;2.05;;;;;;;6.79;62.16;99821.75;5024425;28;20379;-72
2023/03/23 05:05:34;;;;;;;4.05;1.83;;;;;;;7.31;60.95;99830.81;5017872;28;20028;-72
2023/03/23 05:08:06;;;;;;;5.45;2.10;;;;;;;7.04;62.37;99842.34;5020534;28;20124;-69
2023/03/23 05:10:35;;;;;;;4.90;2.30;;;;;;;7.20;62.61;99851.22;5021584;28;20535;-70
2023/03/23 05:13:14;;;;;;;4.82;2.63;;;;;;;7.08;62.34;99841.31;5029139;28;20255;-70
2023/03/23 05:15:42;;;;;;;6.93;2.60;;;;;;;6.97;63.45;99843.50;5024793;28;20063;-68
2023/03/23 05:18:15;;;;;;;9.15;2.40;;;;;;;7.15;62.00;99850.53;5026704;28;20532;-72
2023/03/23 05:20:52;;;;;;;6.40;2.30;;;;;;;6.96;63.31;99855.66;5021290;28;20043;-70
2023/03/23 05:23:20;;;;;;;4.43;2.75;;;;;;;7.34;62.02;99850.63;5004960;28;20517;-70
2023/03/23 05:26:03;;;;;;;4.65;1.60;;;;;;;7.11;62.66;99846.41;5020810;28;20560;-70
2023/03/23 05:28:30;;;;;;;6.35;1.30;;;;;;;6.75;63.44;99849.56;5016689;28;20448;-70
2023/03/23 05:31:22;;;;;;;2.28;1.25;;;;;;;6.55;62.15;99849.53;5030073;28;20040;-71
2023/03/23 05:33:51;;;;;;;0.40;0.20;;;;;;;6.20;61.64;99862.09;5015260;28;20159;-70
2023/03/23 05:36:43;;;;;;;6.35;1.00;;;;;;;6.39;60.93;99851.88;5034517;28;20041;-72
2023/03/23 05:39:16;;;;;;;2.70;0.17;;;;;;;5.85;62.24;99848.69;5023724;28;20040;-74
2023/03/23 05:42:00;;;;;;;1.08;0.10;;;;;;;6.09;61.38;99840.00;5022648;28;20040;-71
2023/03/23 05:44:34;;;;;;;1.20;0.10;;;;;;;6.50;60.21;99855.75;5006922;28;20249;-69
2023/03/23 05:47:00;;;;;;;2.35;0.20;;;;;;;6.02;62.21;99864.47;5022870;28;20692;-74
2023/03/23 05:49:27;;;;;;;2.83;0.35;;;;;;;6.27;61.54;99861.81;5022870;28;20445;-73
2023/03/23 05:51:55;;;;;;;2.40;0.30;;;;;;;6.41;61.35;99866.50;5026047;28;20060;-72
2023/03/23 05:54:31;;;;;;;0.95;0.20;;;;;;;6.12;61.67;99853.75;5022092;28;20059;-74
2023/03/23 05:56:57;;;;;;;0.88;0.20;;;;;;;6.71;59.77;99850.63;5017028;28;20211;-71
2023/03/23 05:59:41;;;;;;;3.67;0.65;;;;;;;6.57;59.86;99847.72;5023892;28;20093;-71
2023/03/23 06:02:16;;;;;;;3.15;0.28;;;;;;;6.77;59.32;99849.53;5020412;28;20035;-71
2023/03/23 06:04:48;;;;;;;2.83;0.40;;;;;;;6.50;60.42;99860.94;5024823;28;20489;-76
2023/03/23 06:07:28;;;;;;;1.10;0.30;;;;;;;6.99;58.42;99867.69;5012675;28;20078;-77
2023/03/23 06:10:02;;;;;;;2.63;0.22;;;;;;;7.20;58.02;99865.94;5039430;28;20641;-68
2023/03/23 06:12:36;;;;;;;1.20;0.20;;;;;;;6.75;58.80;99865.16;5016617;28;20123;-73
2023/03/23 06:15:22;;;;;;;1.08;0.25;;;;;;;7.02;58.36;99867.53;5037150;28;20033;-70
2023/03/23 06:18:26;;;;;;;4.05;0.40;;;;;;;6.94;58.77;99869.63;4956909;28;20427;-69
2023/03/23 06:21:21;;;;;;;3.92;0.70;;;;;;;7.05;58.77;99870.03;5022668;28;20048;-69
2023/03/23 06:24:08;;;;;;;1.05;0.38;;;;;;;7.05;58.88;99870.88;4990052;28;20666;-74
2023/03/23 06:26:38;;;;;;;5.40;0.45;;;;;;;6.99;58.88;99859.88;5015800;28;20350;-72
2023/03/23 06:29:23;;;;;;;9.55;0.30;;;;;;;7.00;59.01;99872.81;5014566;28;20048;-70
2023/03/23 06:31:58;;;;;;;1.35;0.25;;;;;;;6.47;60.28;99868.03;5018975;28;20028;-70
2023/03/23 06:34:29;;;;;;;1.75;0.68;;;;;;;7.08;58.96;99877.69;5014032;28;20051;-69
2023/03/23 06:37:13;;;;;;;5.43;0.20;;;;;;;7.77;57.12;99876.53;5025506;28;20056;-76
2023/03/23 06:39:51;;;;;;;9.40;1.23;;;;;;;7.82;57.06;99888.41;5019093;28;20516;-71
2023/03/23 06:42:37;;;;;;;4.57;0.52;;;;;;;7.59;57.28;99884.22;5006953;28;20052;-70
2023/03/23 06:45:29;;;;;;;2.58;0.55;;;;;;;7.27;58.46;99891.63;4988670;28;20075;-70
2023/03/23 06:48:28;;;;;;;4.38;0.30;;;;;;;7.25;59.26;99900.38;5002903;28;20041;-70
2023/03/23 06:50:55;;;;;;;2.95;0.60;;;;;;;7.06;59.13;99903.72;5040185;28;20028;-72
2023/03/23 06:53:25;;;;;;;8.23;0.95;;;;;;;7.62;58.29;99914.44;5019587;28;20452;-73
2023/03/23 06:55:54;;;;;;;12.20;0.50;;;;;;;7.76;57.72;99906.91;5018217;28;20172;-72
2023/03/23 06:58:38;;;;;;;9.60;1.00;;;;;;;7.25;58.96;99906.44;5002840;28;20052;-72
2023/03/23 07:01:08;;;;;;;3.55;0.70;;;;;;;7.37;58.65;99909.44;5013446;28;20056;-72
2023/03/23 07:03:42;;;;;;;3.55;1.40;;;;;;;7.23;59.36;99900.44;5028903;28;20421;-73
2023/03/23 07:06:26;;;;;;;10.48;1.50;;;;;;;8.29;56.93;99905.41;5020393;28;20032;-72
2023/03/23 07:08:56;;;;;;;5.90;0.80;;;;;;;7.09;58.88;99910.56;5012340;28;20107;-68
2023/03/23 07:11:37;;;;;;;10.30;0.88;;;;;;;8.15;56.58;99906.88;5028555;28;20630;-68
2023/03/23 07:14:14;;;;;;;7.40;1.30;;;;;;;7.69;57.46;99918.47;5011382;28;20646;-69
2023/03/23 07:16:40;;;;;;;12.80;1.80;;;;;;;8.38;55.51;99925.81;5017883;28;20106;-69
2023/03/23 07:19:11;;;;;;;7.65;0.63;;;;;;;7.27;56.84;99925.41;5027741;28;20040;-69
2023/03/23 07:21:37;;;;;;;11.75;1.20;;;;;;;7.12;57.38;99913.03;5019273;28;20037;-67
2023/03/23 07:24:03;;;;;;;9.68;0.90;;;;;;;7.58;56.66;99928.50;5026946;28;20518;-68
2023/03/23 07:27:07;;;;;;;15.73;1.85;;;;;;;8.22;54.89;99930.03;5017873;28;20040;-70
2023/03/23 07:29:38;;;;;;;13.02;1.38;;;;;;;8.34;54.94;99937.31;5024922;28;20262;-65
2023/03/23 07:32:23;;;;;;;11.85;1.75;;;;;;;9.56;50.91;99940.16;5013898;28;20036;-70
2023/03/23 07:34:49;;;;;;;14.95;2.05;;;;;;;10.18;49.24;99941.31;5022837;28;20025;-66
2023/03/23 07:37:41;;;;;;;5.88;1.08;;;;;;;10.71;48.30;99947.16;5023339;28;20456;-66
2023/03/23 07:40:20;;;;;;;15.05;1.27;;;;;;;10.87;47.50;99959.41;5020278;28;20385;-67
2023/03/23 07:43:02;;;;;;;8.38;1.38;;;;;;;11.04;46.88;99952.31;5018054;28;20179;-66
2023/03/23 07:45:54;;;;;;;6.97;0.93;;;;;;;11.59;46.15;99947.44;5036773;28;20082;-67
2023/03/23 07:48:27;;;;;;;5.97;0.57;;;;;;;11.87;45.02;99947.50;5021225;28;20049;-65
2023/03/23 07:50:57;;;;;;;8.57;1.25;;;;;;;10.30;47.62;99960.69;5034797;28;20024;-67
2023/03/23 07:53:33;;;;;;;12.85;1.50;;;;;;;11.51;45.72;99954.88;5018880;28;20043;-68
2023/03/23 07:56:28;;;;;;;8.10;0.73;;;;;;;11.66;44.68;99964.44;5027906;28;20040;-67
2023/03/23 07:59:16;;;;;;;7.65;0.70;;;;;;;11.91;43.92;99963.03;5024013;28;20032;-66
2023/03/23 08:01:47;;;;;;;6.40;1.45;;;;;;;10.90;44.64;99967.91;5025572;28;20432;-68
2023/03/23 08:04:27;;;;;;;5.53;0.88;;;;;;;11.90;42.99;99969.22;5012870;28;20342;-70
2023/03/23 08:07:12;;;;;;;6.72;0.70;;;;;;;12.23;42.02;99975.00;5017444;28;20397;-68
2023/03/23 08:09:52;;;;;;;6.20;0.65;;;;;;;12.75;39.39;99970.13;5032939;28;20409;-68
2023/03/23 08:12:32;;;;;;;5.50;1.05;;;;;;;13.21;37.77;99956.66;5021137;28;20096;-70
2023/03/23 08:15:21;;;;;;;9.38;0.60;;;;;;;12.74;37.45;99957.97;5039978;28;20095;-68
2023/03/23 08:18:03;;;;;;;4.68;0.95;;;;;;;12.21;38.40;99971.66;5017837;28;20075;-69
2023/03/23 08:20:32;;;;;;;2.00;0.30;;;;;;;13.36;35.34;99966.16;5040299;28;20041;-68
2023/03/23 08:23:32;;;;;;;9.75;0.80;;;;;;;13.65;35.80;99979.13;5016307;28;20044;-68
2023/03/23 08:26:35;;;;;;;9.02;0.50;;;;;;;12.40;37.37;99967.88;4997671;28;20061;-68
2023/03/23 08:29:32;;;;;;;7.70;0.88;;;;;;;12.42;37.00;99984.34;5003951;28;20378;-69
2023/03/23 08:32:46;;;;;;;10.50;0.82;;;;;;;11.44;39.39;99985.78;4973266;28;20109;-71
2023/03/23 08:35:24;;;;;;;6.93;0.43;;;;;;;11.51;39.33;99991.50;4966018;28;20732;-70
2023/03/23 08:38:11;;;;;;;10.38;0.70;;;;;;;11.14;39.33;99993.63;5025414;28;20142;-68
2023/03/23 08:41:10;;;;;;;7.75;0.90;;;;;;;10.75;41.14;100000.97;5040911;28;20029;-70
2023/03/23 08:43:56;;;;;;;10.60;0.68;;;;;;;10.94;41.54;100006.03;5036368;28;20567;-69
2023/03/23 08:46:46;;;;;;;4.40;0.63;;;;;;;10.79;42.66;100004.25;5034097;28;20025;-68
2023/03/23 08:49:53;;;;;;;9.10;0.77;;;;;;;10.31;43.60;100013.81;5031728;28;20036;-68
2023/03/23 08:52:50;;;;;;;8.95;0.73;;;;;;;10.25;43.87;100008.88;5015724;28;20045;-68
2023/03/23 08:55:36;;;;;;;7.20;0.50;;;;;;;10.74;43.90;100011.50;5024763;28;20040;-69
2023/03/23 08:58:29;;;;;;;;;;;;;;;10.60;43.56;100026.16;5002004;28;20036;-68
2023/03/23 09:01:21;;;;;;;6.22;1.33;;;;;;;10.18;44.91;100027.47;5014398;28;19927;-71
2023/03/23 09:04:06;;;;;;;10.13;0.80;;;;;;;10.43;45.01;100019.19;4996580;28;20151;-70
2023/03/23 09:06:49;;;;;;;10.88;0.73;;;;;;;9.40;47.52;100026.16;5019904;28;20032;-70
2023/03/23 09:09:15;;;;;;;6.03;0.90;;;;;;;10.84;45.40;100024.00;5028836;28;20051;-70
2023/03/23 09:11:41;;;;;;;10.40;1.70;;;;;;;10.32;46.23;100015.47;5036744;28;20033;-69
2023/03/23 09:14:08;;;;;;;13.77;1.15;;;;;;;10.70;45.12;100023.03;5038309;28;20127;-67
2023/03/23 09:16:41;;;;;;;9.07;1.48;;;;;;;9.48;47.80;100013.59;5023336;28;20518;-71
2023/03/23 09:19:12;;;;;;;12.25;1.35;;;;;;;10.20;46.88;100017.81;5037406;28;20128;-68
2023/03/23 09:21:40;;;;;;;13.07;1.67;;;;;;;9.91;47.11;100037.56;5037834;28;20127;-68
2023/03/23 09:24:08;;;;;;;5.95;1.45;;;;;;;9.39;47.60;100030.53;5040182;28;20515;-68
2023/03/23 09:26:40;;;;;;;8.90;1.83;;;;;;;8.67;49.70;100038.25;5036857;28;20059;-70
2023/03/23 09:29:06;;;;;;;9.65;1.92;;;;;;;9.49;48.00;100030.09;5040584;28;20067;-68
2023/03/23 09:31:41;;;;;;;7.65;1.23;;;;;;;10.64;45.32;100025.06;5038108;28;20425;-69
2023/03/23 09:34:25;;;;;;;11.23;1.45;;;;;;;9.41;47.67;100038.28;4996186;28;20041;-68
2023/03/23 09:36:54;;;;;;;12.23;1.95;;;;;;;11.04;44.63;100030.75;5034369;28;20048;-72
2023/03/23 09:39:20;;;;;;;16.27;2.25;;;;;;;11.00;44.72;100039.69;5038146;28;20215;-68
2023/03/23 09:42:12;;;;;;;10.30;1.35;;;;;;;11.59;42.61;100041.66;5030941;28;20056;-68
2023/03/23 09:44:58;;;;;;;12.02;2.20;;;;;;;11.03;44.67;100046.53;5036334;28;20313;-71
2023/03/23 09:47:48;;;;;;;10.25;1.73;;;;;;;9.82;46.34;100053.69;5002038;28;20053;-69
2023/03/23 09:50:31;;;;;;;15.50;1.23;;;;;;;9.37;47.15;100063.66;5031359;28;20441;-69
2023/03/23 09:53:11;;;;;;;9.02;1.50;;;;;;;10.99;44.11;100058.91;5035884;28;20041;-70
2023/03/23 09:55:41;;;;;;;14.60;1.40;;;;;;;10.88;44.10;100060.44;5034058;28;20047;-71
2023/03/23 09:58:16;;;;;;;13.48;2.10;;;;;;;10.34;44.67;100076.31;5036481;28;20036;-70
2023/03/23 10:00:47;;;;;;;9.23;1.48;;;;;;;10.92;44.56;100067.19;5034485;28;20156;-70
2023/03/23 10:03:25;;;;;;;15.40;1.83;;;;;;;11.28;42.63;100066.09;5019947;28;20525;-70
2023/03/23 10:05:59;;;;;;;5.30;1.15;;;;;;;11.42;42.29;100055.72;5017771;28;20052;-71
2023/03/23 10:08:30;;;;;;;17.38;1.23;;;;;;;10.42;42.17;100063.72;5025918;28;20056;-70
2023/03/23 10:11:27;;;;;;;10.70;1.85;;;;;;;10.71;42.15;100061.31;5037123;28;20017;-70
2023/03/23 10:14:07;;;;;;;15.18;1.48;;;;;;;12.02;42.05;100065.34;5035878;28;20118;-70
2023/03/23 10:16:42;;;;;;;21.42;2.00;;;;;;;11.82;40.79;100066.53;5035042;28;20028;-68
2023/03/23 10:19:41;;;;;;;10.85;1.63;;;;;;;11.63;40.80;100080.66;5036717;28;20524;-69
2023/03/23 10:22:14;;;;;;;17.15;1.42;;;;;;;10.93;42.79;100082.81;5015103;28;20397;-71
2023/03/23 10:25:11;;;;;;;13.48;1.90;;;;;;;10.74;42.37;100085.50;5003277;28;20192;-69
2023/03/23 10:28:01;;;;;;;17.13;1.60;;;;;;;9.50;44.78;100091.75;5022143;28;20048;-66
2023/03/23 10:30:41;;;;;;;8.57;1.10;;;;;;;10.41;43.62;100090.75;5037356;28;20190;-70
2023/03/23 10:33:49;;;;;;;13.27;2.03;;;;;;;10.39;44.07;100076.91;5017665;28;20136;-70
2023/03/23 10:36:21;;;;;;;18.65;2.53;;;;;;;9.37;45.56;100091.50;5038428;28;20036;-67
2023/03/23 10:38:59;;;;;;;11.00;1.50;;;;;;;10.11;44.01;100088.78;5013109;28;20040;-70
2023/03/23 10:41:27;;;;;;;10.20;1.45;;;;;;;10.99;41.97;100081.59;5035381;28;20047;-69
2023/03/23 10:43:57;;;;;;;10.57;1.80;;;;;;;11.88;41.27;100082.72;5006193;28;20044;-70
2023/03/23 10:46:39;;;;;;;16.63;1.65;;;;;;;11.72;41.67;100079.28;5037841;28;20589;-71
2023/03/23 10:49:12;;;;;;;18.40;1.83;;;;;;;11.13;42.11;100080.84;5006566;28;20565;-68
2023/03/23 10:51:47;;;;;;;14.75;1.55;;;;;;;12.46;40.03;100085.44;5035087;28;20055;-68
2023/03/23 10:54:38;;;;;;;13.60;2.30;;;;;;;11.72;40.36;100089.75;5024777;28;20565;-69
2023/03/23 10:57:24;;;;;;;13.18;1.73;;;;;;;12.29;40.12;100092.56;5038361;28;20040;-70
2023/03/23 10:59:50;;;;;;;13.00;1.70;;;;;;;12.23;39.33;100081.59;5034166;28;20067;-72
2023/03/23 11:02:24;;;;;;;18.85;3.28;;;;;;;12.45;39.02;100094.25;5036077;28;20696;-68
2023/03/23 11:05:07;;;;;;;10.88;1.35;;;;;;;12.62;37.20;100096.66;5020045;28;20484;-68
2023/03/23 11:07:53;;;;;;;8.05;1.88;;;;;;;11.88;38.89;100103.66;5037025;28;20055;-66
2023/03/23 11:10:51;;;;;;;8.23;0.75;;;;;;;12.22;37.46;100099.09;5027047;28;20119;-69
2023/03/23 11:13:19;;;;;;;8.07;1.77;;;;;;;12.65;37.32;100112.25;5035477;28;20048;-71
2023/03/23 11:15:47;;;;;;;13.93;1.45;;;;;;;12.74;37.34;100095.13;5039695;28;20047;-70
2023/03/23 11:18:18;;;;;;;6.03;1.45;;;;;;;12.28;36.90;100093.47;5034482;28;20055;-69
2023/03/23 11:20:48;;;;;;;10.27;1.65;;;;;;;12.24;36.97;100097.19;5038181;28;20122;-70
2023/03/23 11:23:26;;;;;;;13.63;1.00;;;;;;;12.85;36.82;100099.72;5035676;28;20056;-69
2023/03/23 11:26:18;;;;;;;11.02;1.17;;;;;;;12.93;35.48;100105.31;5038824;28;20039;-70
2023/03/23 11:28:55;;;;;;;;;;;;;;;12.32;35.85;100088.06;5037189;28;20048;-70
2023/03/23 11:31:23;;;;;;;8.40;1.33;;;;;;;12.38;35.32;100095.53;5039363;28;19974;-70
2023/03/23 11:34:00;;;;;;;6.40;1.00;;;;;;;12.82;35.72;100113.00;5042784;28;20040;-69
2023/03/23 11:36:35;;;;;;;6.47;1.45;;;;;;;12.14;36.62;100101.31;5046290;28;20058;-69
2023/03/23 11:39:05;;;;;;;13.93;1.63;;;;;;;12.76;36.34;100110.75;5041681;28;20037;-70
2023/03/23 11:41:35;;;;;;;8.50;1.00;;;;;;;12.45;35.29;100109.97;5041177;28;20040;-69
2023/03/23 11:44:10;;;;;;;10.02;1.42;;;;;;;12.57;35.14;100111.84;5040260;28;20045;-71
2023/03/23 11:46:47;;;;;;;11.10;1.35;;;;;;;13.19;35.02;100108.94;5023265;28;20675;-69
2023/03/23 11:49:40;;;;;;;15.38;2.00;;;;;;;13.08;34.03;100108.78;5041304;28;20045;-69
2023/03/23 11:52:27;;;;;;;10.30;1.77;;;;;;;12.66;35.00;100108.66;5024599;28;20048;-69
2023/03/23 11:55:02;;;;;;;19.85;1.63;;;;;;;14.00;33.18;100109.88;5040894;28;20044;-70
2023/03/23 11:57:30;;;;;;;12.88;1.85;;;;;;;12.44;33.02;100132.69;5039840;28;20051;-69
2023/03/23 12:00:00;;;;;;;8.98;1.30;;;;;;;11.61;33.70;100103.44;5039728;28;20106;-68
2023/03/23 12:02:46;;;;;;;3.22;0.57;;;;;;;12.18;33.45;100094.09;5027159;28;20046;-69
2023/03/23 12:05:37;;;;;;;8.10;1.38;;;;;;;12.38;34.78;100103.41;5039487;28;20055;-70
2023/03/23 12:08:38;;;;;;;9.27;1.75;;;;;;;11.87;34.21;100115.09;5040471;28;20633;-69
2023/03/23 12:11:06;;;;;;;12.90;1.73;;;;;;;12.01;34.83;100101.19;5034799;28;20044;-70
2023/03/23 12:13:52;;;;;;;7.13;0.60;;;;;;;12.46;34.47;100119.50;5022127;28;20362;-69
2023/03/23 12:16:30;;;;;;;12.05;1.27;;;;;;;12.61;34.47;100115.97;5020493;28;20123;-70
2023/03/23 12:19:18;;;;;;;12.43;1.48;;;;;;;13.61;33.07;100117.66;5039098;28;20033;-69
2023/03/23 12:22:21;;;;;;;11.18;0.98;;;;;;;13.63;33.14;100114.91;5040379;28;20028;-68
2023/03/23 12:24:52;;;;;;;13.70;1.20;;;;;;;13.73;33.52;100121.28;5039457;28;20114;-69